Aviation Digital Data Service (ADDS)

Output produced by METARs form (1732 UTC 27 May 2017)
found at http://www.aviationweather.gov/adds/metars/
 
VNKT 271720Z VRB02KT 7000 FEW015 SCT030 BKN100 19/14 Q1013 NOSIG
TAF VNKT 271100Z 2712/2812 28005KT 7000 FEW020 SCT030 BKN100 
     PROB40 
     TEMPO 2712/2716 VRB12KT 3000 TSRA FEW025CB OVC090 
     BECMG 2714/2715 VRB02KT 6000 FEW015 SCT100 
     BECMG 2800/2802 00000KT 4000 BR FEW010 SCT025 
     BECMG 2804/2805 21005KT 6000 FEW020 SCT100 
     BECMG 2807/2809 29010KT 8000 FEW025 SCT030 BKN100 
     PROB40 
     TEMPO 2808/2812 VRB15KT 3000 TSRA FEW025CB OVC090